»·PEaware :: ASA458 KGEG-KSEA

ASA458 :: KGEG-KSEA

FLIGHT INFORMATION

Flight Status: Arrived
Operator:
Alaska Airlines
More flights by this operator :: More flights under this callsign
Pilot: Caiolinn E. (33836)
Aircraft: BOEING 737-800
(B738)
More flights by this aircraft type
Origin: KGEG Spokane Intl
United States
Destination: KSEA Seattle-Tacoma Intl
United States
More flights between these airports :: More routes between these airports
Route: GEG6 TEMPL GLASR1
File this flight plan on PilotEdge
Remarks:
Altitude:
(Current/Filed)
28,000ft
Speed:
(Current/Filed)
425kts
Departed: 17-Feb-21 01:21 PM
Arrived: 17-Feb-21 02:03 PM
Distance/Time
Traveled:
193nm/0:42
Distance/Time
To Go:
Arrived

Flight Plot

Page will automatically refresh every two minutes.

Flight plan parsing failed; only flown route is shown


Map Options




Map Legend


Flown Route
Filed Route
Departure Airport
Arrival Airport
Navaid (VOR, NDB)
Fix

Horizontal Profiles

Position Reports

Time Latitude Longitude Heading Altitude Ground
Speed
17-Feb-21 13:07 47.626265 -117.534635 217 2360ft 0kts
17-Feb-21 13:08 47.625949 -117.533604 130 2359ft 0kts
17-Feb-21 13:09 47.625949 -117.533604 130 2359ft 0kts
17-Feb-21 13:10 47.625949 -117.533604 130 2359ft 0kts
17-Feb-21 13:11 47.625949 -117.533604 130 2359ft 0kts
17-Feb-21 13:12 47.625949 -117.533604 130 2359ft 0kts
17-Feb-21 13:13 47.625887 -117.533491 129 2359ft 0kts
17-Feb-21 13:14 47.626200 -117.529891 45 2354ft 21kts
17-Feb-21 13:15 47.631598 -117.521925 47 2335ft 15kts
17-Feb-21 13:16 47.632343 -117.520646 78 2331ft 0kts
17-Feb-21 13:17 47.632343 -117.520646 78 2331ft 0kts
17-Feb-21 13:18 47.632343 -117.520645 78 2331ft 0kts
17-Feb-21 13:19 47.630913 -117.518729 220 2329ft 2kts
17-Feb-21 13:20 47.605258 -117.553979 222 3242ft 182kts
17-Feb-21 13:21 47.551384 -117.619157 222 5958ft 266kts
17-Feb-21 13:22 47.477805 -117.702252 221 9237ft 338kts
17-Feb-21 13:23 47.418071 -117.827198 245 11888ft 304kts
17-Feb-21 13:24 47.367410 -117.949070 245 12092ft 322kts
17-Feb-21 13:25 47.333516 -118.087032 287 14389ft 318kts
17-Feb-21 13:26 47.373464 -118.216764 299 15954ft 320kts
17-Feb-21 13:27 47.414165 -118.344880 299 17141ft 321kts
17-Feb-21 13:28 47.455655 -118.476442 300 19533ft 330kts
17-Feb-21 13:29 47.495350 -118.614338 298 22660ft 344kts
17-Feb-21 13:30 47.533202 -118.751527 297 25782ft 351kts
17-Feb-21 13:31 47.570586 -118.889052 298 28269ft 362kts
17-Feb-21 13:32 47.609402 -119.032918 299 28351ft 348kts
17-Feb-21 13:33 47.646350 -119.170090 299 28346ft 346kts
17-Feb-21 13:35 47.683268 -119.308491 299 28345ft 348kts
17-Feb-21 13:36 47.720207 -119.447492 298 28334ft 344kts
17-Feb-21 13:37 47.738841 -119.598023 287 28337ft 364kts
17-Feb-21 13:38 47.750863 -119.748814 286 28343ft 361kts
17-Feb-21 13:39 47.762496 -119.899175 286 28345ft 363kts
17-Feb-21 13:40 47.775025 -120.063698 286 28347ft 362kts
17-Feb-21 13:41 47.786930 -120.223987 286 28344ft 363kts
17-Feb-21 13:42 47.797572 -120.370475 288 29443ft 345kts
17-Feb-21 13:43 47.807548 -120.508497 289 31854ft 334kts
17-Feb-21 13:44 47.817054 -120.643511 290 34219ft 323kts
17-Feb-21 13:45 47.827727 -120.793506 285 27529ft 407kts
17-Feb-21 13:46 47.837951 -120.947806 284 20674ft 313kts
17-Feb-21 13:47 47.847051 -121.079400 280 15348ft 341kts
17-Feb-21 13:48 47.856999 -121.233925 277 12309ft 336kts
17-Feb-21 13:49 47.866012 -121.375052 278 12357ft 317kts
17-Feb-21 13:50 47.873904 -121.500384 278 12591ft 283kts
17-Feb-21 13:51 47.881638 -121.624987 278 12592ft 284kts
17-Feb-21 13:52 47.871672 -121.743996 255 11734ft 293kts
17-Feb-21 13:53 47.848274 -121.857272 255 10166ft 270kts
17-Feb-21 13:54 47.827545 -121.958122 255 8683ft 242kts
17-Feb-21 13:54 47.810920 -122.039660 255 8612ft 250kts
17-Feb-21 13:56 47.775134 -122.140237 225 7709ft 236kts
17-Feb-21 13:56 47.738216 -122.191327 225 6481ft 226kts
17-Feb-21 13:57 47.693249 -122.254351 225 4985ft 222kts
17-Feb-21 13:59 47.630791 -122.291940 195 3789ft 196kts
17-Feb-21 14:00 47.577649 -122.308639 189 3117ft 197kts
17-Feb-21 14:01 47.523062 -122.302557 180 2268ft 194kts
17-Feb-21 14:01 47.479870 -122.307537 181 895ft 182kts
17-Feb-21 14:02 47.446476 -122.307807 168 395ft 27kts
17-Feb-21 14:03 47.446107 -122.306453 38 394ft 0kts
17-Feb-21 14:04 47.446162 -122.306389 38 394ft 3kts
17-Feb-21 14:05 47.447105 -122.303649 98 397ft 18kts
17-Feb-21 14:06 47.446251 -122.303108 249 394ft 0kts
17-Feb-21 14:07 47.446251 -122.303108 249 394ft 0kts
17-Feb-21 14:08 47.446251 -122.303108 249 394ft 0kts
17-Feb-21 14:09 47.446251 -122.303108 249 394ft 0kts
17-Feb-21 14:10 47.446251 -122.303108 249 394ft 0kts
17-Feb-21 14:11 47.446251 -122.303108 249 394ft 0kts
17-Feb-21 14:12 47.446251 -122.303108 249 394ft 0kts
17-Feb-21 14:13 47.446251 -122.303108 249 394ft 0kts
17-Feb-21 14:14 47.446523 -122.303345 228 395ft 0kts
17-Feb-21 14:15 47.446523 -122.303345 228 395ft 0kts
17-Feb-21 14:16 47.446523 -122.303345 228 395ft 0kts

Navigation Log

Ident Type
Flight plan parsing failed, navigation log unavailable